sensor_id;sensor_type;location;lat;lon;timestamp;P1;durP1;ratioP1;P2;durP2;ratioP2
2710;SDS011;20721;47.402;8.550;2023-05-02T00:00:20;4.82;;;4.82;;
2710;SDS011;20721;47.402;8.550;2023-05-02T00:02:19;4.14;;;4.14;;
2710;SDS011;20721;47.402;8.550;2023-05-02T00:03:19;4.93;;;4.93;;
2710;SDS011;20721;47.402;8.550;2023-05-02T00:04:19;4.43;;;4.43;;
2710;SDS011;20721;47.402;8.550;2023-05-02T00:05:20;4.87;;;4.87;;
2710;SDS011;20721;47.402;8.550;2023-05-02T00:06:20;5.00;;;5.00;;
2710;SDS011;20721;47.402;8.550;2023-05-02T00:07:20;4.38;;;4.38;;
2710;SDS011;20721;47.402;8.550;2023-05-02T00:08:20;4.35;;;4.35;;
2710;SDS011;20721;47.402;8.550;2023-05-02T00:09:19;4.79;;;4.79;;
2710;SDS011;20721;47.402;8.550;2023-05-02T00:10:19;4.02;;;4.02;;
2710;SDS011;20721;47.402;8.550;2023-05-02T00:12:19;4.35;;;4.35;;
2710;SDS011;20721;47.402;8.550;2023-05-02T00:13:19;3.90;;;3.90;;
2710;SDS011;20721;47.402;8.550;2023-05-02T00:14:19;3.42;;;3.42;;
2710;SDS011;20721;47.402;8.550;2023-05-02T00:15:19;3.62;;;3.62;;
2710;SDS011;20721;47.402;8.550;2023-05-02T00:16:20;3.88;;;3.88;;
2710;SDS011;20721;47.402;8.550;2023-05-02T00:17:26;4.17;;;4.17;;
2710;SDS011;20721;47.402;8.550;2023-05-02T00:18:19;3.48;;;3.48;;
2710;SDS011;20721;47.402;8.550;2023-05-02T00:19:19;4.06;;;4.06;;
2710;SDS011;20721;47.402;8.550;2023-05-02T00:21:20;3.42;;;3.42;;
2710;SDS011;20721;47.402;8.550;2023-05-02T00:22:19;4.08;;;4.08;;
2710;SDS011;20721;47.402;8.550;2023-05-02T00:23:23;3.87;;;3.87;;
2710;SDS011;20721;47.402;8.550;2023-05-02T00:24:19;3.82;;;3.82;;
2710;SDS011;20721;47.402;8.550;2023-05-02T00:25:19;3.34;;;3.34;;
2710;SDS011;20721;47.402;8.550;2023-05-02T00:26:19;3.53;;;3.53;;
2710;SDS011;20721;47.402;8.550;2023-05-02T00:27:19;3.35;;;3.35;;
2710;SDS011;20721;47.402;8.550;2023-05-02T00:28:19;4.24;;;4.24;;
2710;SDS011;20721;47.402;8.550;2023-05-02T00:29:19;3.13;;;3.13;;
2710;SDS011;20721;47.402;8.550;2023-05-02T00:30:19;3.60;;;3.60;;
2710;SDS011;20721;47.402;8.550;2023-05-02T00:31:19;3.35;;;3.35;;
2710;SDS011;20721;47.402;8.550;2023-05-02T00:32:19;3.28;;;3.28;;
2710;SDS011;20721;47.402;8.550;2023-05-02T00:33:21;3.52;;;3.52;;
2710;SDS011;20721;47.402;8.550;2023-05-02T00:34:19;3.29;;;3.29;;
2710;SDS011;20721;47.402;8.550;2023-05-02T00:35:19;2.88;;;2.88;;
2710;SDS011;20721;47.402;8.550;2023-05-02T00:36:25;3.24;;;3.24;;
2710;SDS011;20721;47.402;8.550;2023-05-02T00:37:19;4.06;;;4.06;;
2710;SDS011;20721;47.402;8.550;2023-05-02T00:38:19;4.17;;;4.17;;
2710;SDS011;20721;47.402;8.550;2023-05-02T00:39:20;3.38;;;3.38;;
2710;SDS011;20721;47.402;8.550;2023-05-02T00:40:20;3.71;;;3.71;;
2710;SDS011;20721;47.402;8.550;2023-05-02T00:42:19;3.51;;;3.51;;
2710;SDS011;20721;47.402;8.550;2023-05-02T00:43:19;3.12;;;3.12;;
2710;SDS011;20721;47.402;8.550;2023-05-02T00:44:19;3.68;;;3.68;;
2710;SDS011;20721;47.402;8.550;2023-05-02T00:45:19;3.67;;;3.67;;
2710;SDS011;20721;47.402;8.550;2023-05-02T00:46:22;3.56;;;3.56;;
2710;SDS011;20721;47.402;8.550;2023-05-02T00:47:19;3.75;;;3.75;;
2710;SDS011;20721;47.402;8.550;2023-05-02T00:48:20;3.24;;;3.24;;
2710;SDS011;20721;47.402;8.550;2023-05-02T00:49:20;2.86;;;2.86;;
2710;SDS011;20721;47.402;8.550;2023-05-02T00:50:19;3.96;;;3.96;;
2710;SDS011;20721;47.402;8.550;2023-05-02T00:51:22;3.75;;;3.75;;
2710;SDS011;20721;47.402;8.550;2023-05-02T00:52:19;3.48;;;3.48;;
2710;SDS011;20721;47.402;8.550;2023-05-02T00:53:19;3.41;;;3.41;;
2710;SDS011;20721;47.402;8.550;2023-05-02T00:54:24;3.85;;;3.85;;
2710;SDS011;20721;47.402;8.550;2023-05-02T00:55:19;3.26;;;3.26;;
2710;SDS011;20721;47.402;8.550;2023-05-02T00:56:19;3.64;;;3.64;;
2710;SDS011;20721;47.402;8.550;2023-05-02T00:57:19;3.62;;;3.62;;
2710;SDS011;20721;47.402;8.550;2023-05-02T00:58:22;3.82;;;3.82;;
2710;SDS011;20721;47.402;8.550;2023-05-02T00:59:20;3.45;;;3.45;;
2710;SDS011;20721;47.402;8.550;2023-05-02T01:00:26;3.29;;;3.29;;
2710;SDS011;20721;47.402;8.550;2023-05-02T01:02:40;3.62;;;3.62;;
2710;SDS011;20721;47.402;8.550;2023-05-02T01:04:25;3.02;;;3.02;;
2710;SDS011;20721;47.402;8.550;2023-05-02T01:08:29;2.80;;;2.80;;
2710;SDS011;20721;47.402;8.550;2023-05-02T01:11:32;3.64;;;3.64;;
2710;SDS011;20721;47.402;8.550;2023-05-02T01:14:20;3.60;;;3.60;;
2710;SDS011;20721;47.402;8.550;2023-05-02T01:15:24;3.80;;;3.80;;
2710;SDS011;20721;47.402;8.550;2023-05-02T01:16:20;3.50;;;3.50;;
2710;SDS011;20721;47.402;8.550;2023-05-02T01:17:23;3.22;;;3.22;;
2710;SDS011;20721;47.402;8.550;2023-05-02T01:18:22;3.42;;;3.42;;
2710;SDS011;20721;47.402;8.550;2023-05-02T01:19:24;3.74;;;3.74;;
2710;SDS011;20721;47.402;8.550;2023-05-02T01:20:25;3.18;;;3.18;;
2710;SDS011;20721;47.402;8.550;2023-05-02T01:21:20;3.99;;;3.99;;
2710;SDS011;20721;47.402;8.550;2023-05-02T01:22:20;3.28;;;3.28;;
2710;SDS011;20721;47.402;8.550;2023-05-02T01:23:51;4.14;;;4.14;;
2710;SDS011;20721;47.402;8.550;2023-05-02T01:24:24;3.08;;;3.08;;
2710;SDS011;20721;47.402;8.550;2023-05-02T01:26:24;4.25;;;4.25;;
2710;SDS011;20721;47.402;8.550;2023-05-02T01:27:30;3.32;;;3.32;;
2710;SDS011;20721;47.402;8.550;2023-05-02T01:28:28;3.57;;;3.57;;
2710;SDS011;20721;47.402;8.550;2023-05-02T01:29:21;3.89;;;3.89;;
2710;SDS011;20721;47.402;8.550;2023-05-02T01:30:21;3.39;;;3.39;;
2710;SDS011;20721;47.402;8.550;2023-05-02T01:31:26;4.05;;;4.05;;
2710;SDS011;20721;47.402;8.550;2023-05-02T01:32:20;3.91;;;3.91;;
2710;SDS011;20721;47.402;8.550;2023-05-02T01:33:20;3.37;;;3.37;;
2710;SDS011;20721;47.402;8.550;2023-05-02T01:34:20;4.04;;;4.04;;
2710;SDS011;20721;47.402;8.550;2023-05-02T01:35:20;3.93;;;3.93;;
2710;SDS011;20721;47.402;8.550;2023-05-02T01:36:21;3.68;;;3.68;;
2710;SDS011;20721;47.402;8.550;2023-05-02T01:37:24;3.90;;;3.90;;
2710;SDS011;20721;47.402;8.550;2023-05-02T01:38:23;3.75;;;3.75;;
2710;SDS011;20721;47.402;8.550;2023-05-02T01:39:23;3.80;;;3.80;;
2710;SDS011;20721;47.402;8.550;2023-05-02T01:40:20;4.31;;;4.31;;
2710;SDS011;20721;47.402;8.550;2023-05-02T01:42:20;3.56;;;3.56;;
2710;SDS011;20721;47.402;8.550;2023-05-02T01:43:21;3.68;;;3.68;;
2710;SDS011;20721;47.402;8.550;2023-05-02T01:45:21;3.58;;;3.58;;
2710;SDS011;20721;47.402;8.550;2023-05-02T01:47:21;4.21;;;4.21;;
2710;SDS011;20721;47.402;8.550;2023-05-02T01:49:20;3.78;;;3.78;;
2710;SDS011;20721;47.402;8.550;2023-05-02T01:50:22;3.93;;;3.93;;
2710;SDS011;20721;47.402;8.550;2023-05-02T01:51:20;3.39;;;3.39;;
2710;SDS011;20721;47.402;8.550;2023-05-02T01:54:22;3.93;;;3.93;;
2710;SDS011;20721;47.402;8.550;2023-05-02T01:56:20;3.55;;;3.55;;
2710;SDS011;20721;47.402;8.550;2023-05-02T01:57:21;4.10;;;4.10;;
2710;SDS011;20721;47.402;8.550;2023-05-02T01:58:20;3.63;;;3.63;;
2710;SDS011;20721;47.402;8.550;2023-05-02T02:01:20;3.95;;;3.95;;
2710;SDS011;20721;47.402;8.550;2023-05-02T02:02:20;3.75;;;3.75;;
2710;SDS011;20721;47.402;8.550;2023-05-02T02:04:22;4.43;;;4.43;;
2710;SDS011;20721;47.402;8.550;2023-05-02T02:06:20;3.73;;;3.73;;
2710;SDS011;20721;47.402;8.550;2023-05-02T02:07:22;3.52;;;3.52;;
2710;SDS011;20721;47.402;8.550;2023-05-02T02:08:24;3.84;;;3.84;;
2710;SDS011;20721;47.402;8.550;2023-05-02T02:10:19;3.94;;;3.94;;
2710;SDS011;20721;47.402;8.550;2023-05-02T02:12:25;3.21;;;3.21;;
2710;SDS011;20721;47.402;8.550;2023-05-02T02:13:30;3.19;;;3.19;;
2710;SDS011;20721;47.402;8.550;2023-05-02T02:15:31;3.17;;;3.17;;
2710;SDS011;20721;47.402;8.550;2023-05-02T02:16:23;3.63;;;3.63;;
2710;SDS011;20721;47.402;8.550;2023-05-02T02:17:31;3.49;;;3.49;;
2710;SDS011;20721;47.402;8.550;2023-05-02T02:18:23;3.48;;;3.48;;
2710;SDS011;20721;47.402;8.550;2023-05-02T02:19:22;3.35;;;3.35;;
2710;SDS011;20721;47.402;8.550;2023-05-02T02:20:21;3.31;;;3.31;;
2710;SDS011;20721;47.402;8.550;2023-05-02T02:21:20;3.53;;;3.53;;
2710;SDS011;20721;47.402;8.550;2023-05-02T02:22:20;3.60;;;3.60;;
2710;SDS011;20721;47.402;8.550;2023-05-02T02:23:22;3.66;;;3.66;;
2710;SDS011;20721;47.402;8.550;2023-05-02T02:24:20;3.75;;;3.75;;
2710;SDS011;20721;47.402;8.550;2023-05-02T02:25:21;3.96;;;3.96;;
2710;SDS011;20721;47.402;8.550;2023-05-02T02:26:21;3.20;;;3.20;;
2710;SDS011;20721;47.402;8.550;2023-05-02T02:27:20;4.01;;;4.01;;
2710;SDS011;20721;47.402;8.550;2023-05-02T02:28:20;3.62;;;3.62;;
2710;SDS011;20721;47.402;8.550;2023-05-02T02:29:20;4.00;;;4.00;;
2710;SDS011;20721;47.402;8.550;2023-05-02T02:30:20;3.86;;;3.86;;
2710;SDS011;20721;47.402;8.550;2023-05-02T02:31:20;3.76;;;3.76;;
2710;SDS011;20721;47.402;8.550;2023-05-02T02:32:19;3.92;;;3.92;;
2710;SDS011;20721;47.402;8.550;2023-05-02T02:33:28;3.69;;;3.69;;
2710;SDS011;20721;47.402;8.550;2023-05-02T02:35:20;3.80;;;3.80;;
2710;SDS011;20721;47.402;8.550;2023-05-02T02:36:23;3.55;;;3.55;;
2710;SDS011;20721;47.402;8.550;2023-05-02T02:37:29;3.25;;;3.25;;
2710;SDS011;20721;47.402;8.550;2023-05-02T02:40:22;3.67;;;3.67;;
2710;SDS011;20721;47.402;8.550;2023-05-02T02:41:22;3.94;;;3.94;;
2710;SDS011;20721;47.402;8.550;2023-05-02T02:43:36;3.80;;;3.80;;
2710;SDS011;20721;47.402;8.550;2023-05-02T02:48:34;3.46;;;3.46;;
2710;SDS011;20721;47.402;8.550;2023-05-02T02:50:32;3.96;;;3.96;;
2710;SDS011;20721;47.402;8.550;2023-05-02T02:51:38;4.58;;;4.58;;
2710;SDS011;20721;47.402;8.550;2023-05-02T02:52:47;3.77;;;3.77;;
2710;SDS011;20721;47.402;8.550;2023-05-02T02:54:44;3.52;;;3.52;;
2710;SDS011;20721;47.402;8.550;2023-05-02T02:56:26;3.81;;;3.81;;
2710;SDS011;20721;47.402;8.550;2023-05-02T02:57:27;3.81;;;3.81;;
2710;SDS011;20721;47.402;8.550;2023-05-02T02:58:47;3.67;;;3.67;;
2710;SDS011;20721;47.402;8.550;2023-05-02T03:00:25;4.19;;;4.19;;
2710;SDS011;20721;47.402;8.550;2023-05-02T03:01:23;3.72;;;3.72;;
2710;SDS011;20721;47.402;8.550;2023-05-02T03:02:21;3.70;;;3.70;;
2710;SDS011;20721;47.402;8.550;2023-05-02T03:03:21;4.02;;;4.02;;
2710;SDS011;20721;47.402;8.550;2023-05-02T03:04:20;3.68;;;3.68;;
2710;SDS011;20721;47.402;8.550;2023-05-02T03:06:20;3.76;;;3.76;;
2710;SDS011;20721;47.402;8.550;2023-05-02T03:08:20;3.53;;;3.53;;
2710;SDS011;20721;47.402;8.550;2023-05-02T03:09:24;4.02;;;4.02;;
2710;SDS011;20721;47.402;8.550;2023-05-02T03:10:21;3.65;;;3.65;;
2710;SDS011;20721;47.402;8.550;2023-05-02T03:11:20;3.63;;;3.63;;
2710;SDS011;20721;47.402;8.550;2023-05-02T03:12:20;3.98;;;3.98;;
2710;SDS011;20721;47.402;8.550;2023-05-02T03:14:20;3.95;;;3.95;;
2710;SDS011;20721;47.402;8.550;2023-05-02T03:16:33;3.87;;;3.87;;
2710;SDS011;20721;47.402;8.550;2023-05-02T03:17:20;3.36;;;3.36;;
2710;SDS011;20721;47.402;8.550;2023-05-02T03:18:20;3.46;;;3.46;;
2710;SDS011;20721;47.402;8.550;2023-05-02T03:19:20;3.06;;;3.06;;
2710;SDS011;20721;47.402;8.550;2023-05-02T03:20:20;3.94;;;3.94;;
2710;SDS011;20721;47.402;8.550;2023-05-02T03:22:25;3.79;;;3.79;;
2710;SDS011;20721;47.402;8.550;2023-05-02T03:23:20;3.54;;;3.54;;
2710;SDS011;20721;47.402;8.550;2023-05-02T03:24:20;4.38;;;4.38;;
2710;SDS011;20721;47.402;8.550;2023-05-02T03:25:20;3.76;;;3.76;;
2710;SDS011;20721;47.402;8.550;2023-05-02T03:26:20;4.03;;;4.03;;
2710;SDS011;20721;47.402;8.550;2023-05-02T03:27:20;3.92;;;3.92;;
2710;SDS011;20721;47.402;8.550;2023-05-02T03:29:20;4.49;;;4.49;;
2710;SDS011;20721;47.402;8.550;2023-05-02T03:30:20;4.57;;;4.57;;
2710;SDS011;20721;47.402;8.550;2023-05-02T03:31:20;4.09;;;4.09;;
2710;SDS011;20721;47.402;8.550;2023-05-02T03:32:20;4.17;;;4.17;;
2710;SDS011;20721;47.402;8.550;2023-05-02T03:33:20;3.94;;;3.94;;
2710;SDS011;20721;47.402;8.550;2023-05-02T03:34:20;4.11;;;4.11;;
2710;SDS011;20721;47.402;8.550;2023-05-02T03:35:20;4.00;;;4.00;;
2710;SDS011;20721;47.402;8.550;2023-05-02T03:36:20;4.31;;;4.31;;
2710;SDS011;20721;47.402;8.550;2023-05-02T03:37:20;3.62;;;3.62;;
2710;SDS011;20721;47.402;8.550;2023-05-02T03:38:20;3.61;;;3.61;;
2710;SDS011;20721;47.402;8.550;2023-05-02T03:40:20;4.00;;;4.00;;
2710;SDS011;20721;47.402;8.550;2023-05-02T03:41:20;3.59;;;3.59;;
2710;SDS011;20721;47.402;8.550;2023-05-02T03:43:20;3.86;;;3.86;;
2710;SDS011;20721;47.402;8.550;2023-05-02T03:44:20;3.40;;;3.40;;
2710;SDS011;20721;47.402;8.550;2023-05-02T03:45:20;4.25;;;4.25;;
2710;SDS011;20721;47.402;8.550;2023-05-02T03:47:20;4.48;;;4.48;;
2710;SDS011;20721;47.402;8.550;2023-05-02T03:48:20;3.87;;;3.87;;
2710;SDS011;20721;47.402;8.550;2023-05-02T03:49:20;3.71;;;3.71;;
2710;SDS011;20721;47.402;8.550;2023-05-02T03:50:20;4.09;;;4.09;;
2710;SDS011;20721;47.402;8.550;2023-05-02T03:51:20;4.64;;;4.64;;
2710;SDS011;20721;47.402;8.550;2023-05-02T03:52:20;4.34;;;4.34;;
2710;SDS011;20721;47.402;8.550;2023-05-02T03:53:20;4.27;;;4.27;;
2710;SDS011;20721;47.402;8.550;2023-05-02T03:54:20;4.06;;;4.06;;
2710;SDS011;20721;47.402;8.550;2023-05-02T03:55:20;4.16;;;4.16;;
2710;SDS011;20721;47.402;8.550;2023-05-02T03:56:20;3.92;;;3.92;;
2710;SDS011;20721;47.402;8.550;2023-05-02T03:57:21;4.42;;;4.42;;
2710;SDS011;20721;47.402;8.550;2023-05-02T03:58:20;4.10;;;4.10;;
2710;SDS011;20721;47.402;8.550;2023-05-02T03:59:25;4.58;;;4.58;;
2710;SDS011;20721;47.402;8.550;2023-05-02T04:00:20;4.14;;;4.14;;
2710;SDS011;20721;47.402;8.550;2023-05-02T04:01:24;4.46;;;4.46;;
2710;SDS011;20721;47.402;8.550;2023-05-02T04:02:20;4.37;;;4.37;;
2710;SDS011;20721;47.402;8.550;2023-05-02T04:03:20;4.83;;;4.83;;
2710;SDS011;20721;47.402;8.550;2023-05-02T04:04:20;4.33;;;4.33;;
2710;SDS011;20721;47.402;8.550;2023-05-02T04:05:25;4.37;;;4.37;;
2710;SDS011;20721;47.402;8.550;2023-05-02T04:06:21;4.58;;;4.58;;
2710;SDS011;20721;47.402;8.550;2023-05-02T04:07:27;4.31;;;4.31;;
2710;SDS011;20721;47.402;8.550;2023-05-02T04:08:20;3.94;;;3.94;;
2710;SDS011;20721;47.402;8.550;2023-05-02T04:09:20;4.26;;;4.26;;
2710;SDS011;20721;47.402;8.550;2023-05-02T04:10:25;3.61;;;3.61;;
2710;SDS011;20721;47.402;8.550;2023-05-02T04:11:20;4.43;;;4.43;;
2710;SDS011;20721;47.402;8.550;2023-05-02T04:12:20;3.74;;;3.74;;
2710;SDS011;20721;47.402;8.550;2023-05-02T04:13:20;4.49;;;4.49;;
2710;SDS011;20721;47.402;8.550;2023-05-02T04:14:20;4.37;;;4.37;;
2710;SDS011;20721;47.402;8.550;2023-05-02T04:15:20;4.28;;;4.28;;
2710;SDS011;20721;47.402;8.550;2023-05-02T04:16:20;4.34;;;4.34;;
2710;SDS011;20721;47.402;8.550;2023-05-02T04:19:22;3.94;;;3.94;;
2710;SDS011;20721;47.402;8.550;2023-05-02T04:20:20;3.60;;;3.60;;
2710;SDS011;20721;47.402;8.550;2023-05-02T04:21:20;4.26;;;4.26;;
2710;SDS011;20721;47.402;8.550;2023-05-02T04:22:20;4.18;;;4.18;;
2710;SDS011;20721;47.402;8.550;2023-05-02T04:23:20;4.26;;;4.26;;
2710;SDS011;20721;47.402;8.550;2023-05-02T04:25:20;4.35;;;4.35;;
2710;SDS011;20721;47.402;8.550;2023-05-02T04:28:20;4.11;;;4.11;;
2710;SDS011;20721;47.402;8.550;2023-05-02T04:29:20;4.22;;;4.22;;
2710;SDS011;20721;47.402;8.550;2023-05-02T04:30:20;4.00;;;4.00;;
2710;SDS011;20721;47.402;8.550;2023-05-02T04:32:20;3.98;;;3.98;;
2710;SDS011;20721;47.402;8.550;2023-05-02T04:34:20;3.96;;;3.96;;
2710;SDS011;20721;47.402;8.550;2023-05-02T04:35:20;3.92;;;3.92;;
2710;SDS011;20721;47.402;8.550;2023-05-02T04:36:25;4.30;;;4.30;;
2710;SDS011;20721;47.402;8.550;2023-05-02T04:37:20;4.18;;;4.18;;
2710;SDS011;20721;47.402;8.550;2023-05-02T04:38:20;4.53;;;4.53;;
2710;SDS011;20721;47.402;8.550;2023-05-02T04:39:20;4.39;;;4.39;;
2710;SDS011;20721;47.402;8.550;2023-05-02T04:40:20;4.72;;;4.72;;
2710;SDS011;20721;47.402;8.550;2023-05-02T04:42:25;4.42;;;4.42;;
2710;SDS011;20721;47.402;8.550;2023-05-02T04:43:20;4.62;;;4.62;;
2710;SDS011;20721;47.402;8.550;2023-05-02T04:44:20;4.52;;;4.52;;
2710;SDS011;20721;47.402;8.550;2023-05-02T04:45:21;4.56;;;4.56;;
2710;SDS011;20721;47.402;8.550;2023-05-02T04:46:20;4.22;;;4.22;;
2710;SDS011;20721;47.402;8.550;2023-05-02T04:47:20;4.11;;;4.11;;
2710;SDS011;20721;47.402;8.550;2023-05-02T04:48:20;4.54;;;4.54;;
2710;SDS011;20721;47.402;8.550;2023-05-02T04:49:20;4.63;;;4.63;;
2710;SDS011;20721;47.402;8.550;2023-05-02T04:50:20;4.51;;;4.51;;
2710;SDS011;20721;47.402;8.550;2023-05-02T04:51:20;4.18;;;4.18;;
2710;SDS011;20721;47.402;8.550;2023-05-02T04:52:20;4.86;;;4.86;;
2710;SDS011;20721;47.402;8.550;2023-05-02T04:54:21;4.76;;;4.76;;
2710;SDS011;20721;47.402;8.550;2023-05-02T04:55:20;4.22;;;4.22;;
2710;SDS011;20721;47.402;8.550;2023-05-02T04:56:20;5.10;;;5.10;;
2710;SDS011;20721;47.402;8.550;2023-05-02T04:58:20;4.68;;;4.68;;
2710;SDS011;20721;47.402;8.550;2023-05-02T04:59:20;4.08;;;4.08;;
2710;SDS011;20721;47.402;8.550;2023-05-02T05:00:20;4.43;;;4.43;;
2710;SDS011;20721;47.402;8.550;2023-05-02T05:01:20;4.99;;;4.99;;
2710;SDS011;20721;47.402;8.550;2023-05-02T05:02:21;5.07;;;5.07;;
2710;SDS011;20721;47.402;8.550;2023-05-02T05:03:20;5.01;;;5.01;;
2710;SDS011;20721;47.402;8.550;2023-05-02T05:05:20;4.85;;;4.85;;
2710;SDS011;20721;47.402;8.550;2023-05-02T05:06:21;4.89;;;4.89;;
2710;SDS011;20721;47.402;8.550;2023-05-02T05:07:20;4.90;;;4.90;;
2710;SDS011;20721;47.402;8.550;2023-05-02T05:08:20;4.69;;;4.69;;
2710;SDS011;20721;47.402;8.550;2023-05-02T05:09:20;4.40;;;4.40;;
2710;SDS011;20721;47.402;8.550;2023-05-02T05:10:20;4.14;;;4.14;;
2710;SDS011;20721;47.402;8.550;2023-05-02T05:11:20;4.71;;;4.71;;
2710;SDS011;20721;47.402;8.550;2023-05-02T05:12:20;5.20;;;5.20;;
2710;SDS011;20721;47.402;8.550;2023-05-02T05:13:25;4.30;;;4.30;;
2710;SDS011;20721;47.402;8.550;2023-05-02T05:14:20;4.97;;;4.97;;
2710;SDS011;20721;47.402;8.550;2023-05-02T05:15:20;4.59;;;4.59;;
2710;SDS011;20721;47.402;8.550;2023-05-02T05:16:20;4.88;;;4.88;;
2710;SDS011;20721;47.402;8.550;2023-05-02T05:17:20;4.59;;;4.59;;
2710;SDS011;20721;47.402;8.550;2023-05-02T05:18:20;4.56;;;4.56;;
2710;SDS011;20721;47.402;8.550;2023-05-02T05:19:20;4.51;;;4.51;;
2710;SDS011;20721;47.402;8.550;2023-05-02T05:20:20;4.95;;;4.95;;
2710;SDS011;20721;47.402;8.550;2023-05-02T05:21:20;4.68;;;4.68;;
2710;SDS011;20721;47.402;8.550;2023-05-02T05:22:20;4.94;;;4.94;;
2710;SDS011;20721;47.402;8.550;2023-05-02T05:23:20;5.29;;;5.29;;
2710;SDS011;20721;47.402;8.550;2023-05-02T05:24:20;4.50;;;4.50;;
2710;SDS011;20721;47.402;8.550;2023-05-02T05:25:20;4.85;;;4.85;;
2710;SDS011;20721;47.402;8.550;2023-05-02T05:26:21;5.12;;;5.12;;
2710;SDS011;20721;47.402;8.550;2023-05-02T05:27:20;5.01;;;5.01;;
2710;SDS011;20721;47.402;8.550;2023-05-02T05:28:20;4.82;;;4.82;;
2710;SDS011;20721;47.402;8.550;2023-05-02T05:29:20;5.47;;;5.47;;
2710;SDS011;20721;47.402;8.550;2023-05-02T05:31:21;5.71;;;5.71;;
2710;SDS011;20721;47.402;8.550;2023-05-02T05:32:20;5.68;;;5.68;;
2710;SDS011;20721;47.402;8.550;2023-05-02T05:33:20;4.59;;;4.59;;
2710;SDS011;20721;47.402;8.550;2023-05-02T05:34:20;5.22;;;5.22;;
2710;SDS011;20721;47.402;8.550;2023-05-02T05:35:20;5.00;;;5.00;;
2710;SDS011;20721;47.402;8.550;2023-05-02T05:36:22;5.01;;;5.01;;
2710;SDS011;20721;47.402;8.550;2023-05-02T05:37:20;4.77;;;4.77;;
2710;SDS011;20721;47.402;8.550;2023-05-02T05:38:20;5.07;;;5.07;;
2710;SDS011;20721;47.402;8.550;2023-05-02T05:39:20;5.23;;;5.23;;
2710;SDS011;20721;47.402;8.550;2023-05-02T05:40:20;4.62;;;4.62;;
2710;SDS011;20721;47.402;8.550;2023-05-02T05:42:21;5.59;;;5.59;;
2710;SDS011;20721;47.402;8.550;2023-05-02T05:43:20;5.37;;;5.37;;
2710;SDS011;20721;47.402;8.550;2023-05-02T05:45:21;5.66;;;5.66;;
2710;SDS011;20721;47.402;8.550;2023-05-02T05:46:20;6.16;;;6.16;;
2710;SDS011;20721;47.402;8.550;2023-05-02T05:48:20;5.37;;;5.37;;
2710;SDS011;20721;47.402;8.550;2023-05-02T05:49:21;4.82;;;4.82;;
2710;SDS011;20721;47.402;8.550;2023-05-02T05:50:20;4.90;;;4.90;;
2710;SDS011;20721;47.402;8.550;2023-05-02T05:52:20;5.41;;;5.41;;
2710;SDS011;20721;47.402;8.550;2023-05-02T05:53:20;4.93;;;4.93;;
2710;SDS011;20721;47.402;8.550;2023-05-02T05:55:20;5.39;;;5.39;;
2710;SDS011;20721;47.402;8.550;2023-05-02T05:58:20;5.83;;;5.83;;
2710;SDS011;20721;47.402;8.550;2023-05-02T06:00:20;4.78;;;4.78;;
2710;SDS011;20721;47.402;8.550;2023-05-02T06:01:20;4.82;;;4.82;;
2710;SDS011;20721;47.402;8.550;2023-05-02T06:02:20;5.10;;;5.10;;
2710;SDS011;20721;47.402;8.550;2023-05-02T06:03:21;5.64;;;5.64;;
2710;SDS011;20721;47.402;8.550;2023-05-02T06:04:20;4.92;;;4.92;;
2710;SDS011;20721;47.402;8.550;2023-05-02T06:05:20;5.92;;;5.92;;
2710;SDS011;20721;47.402;8.550;2023-05-02T06:07:20;5.45;;;5.45;;
2710;SDS011;20721;47.402;8.550;2023-05-02T06:08:20;5.89;;;5.89;;
2710;SDS011;20721;47.402;8.550;2023-05-02T06:11:20;5.50;;;5.50;;
2710;SDS011;20721;47.402;8.550;2023-05-02T06:12:20;6.54;;;6.54;;
2710;SDS011;20721;47.402;8.550;2023-05-02T06:13:20;5.51;;;5.51;;
2710;SDS011;20721;47.402;8.550;2023-05-02T06:14:20;6.88;;;6.88;;
2710;SDS011;20721;47.402;8.550;2023-05-02T06:15:20;6.04;;;6.04;;
2710;SDS011;20721;47.402;8.550;2023-05-02T06:16:20;5.88;;;5.88;;
2710;SDS011;20721;47.402;8.550;2023-05-02T06:17:20;5.61;;;5.61;;
2710;SDS011;20721;47.402;8.550;2023-05-02T06:18:20;6.02;;;6.02;;
2710;SDS011;20721;47.402;8.550;2023-05-02T06:19:20;5.50;;;5.50;;
2710;SDS011;20721;47.402;8.550;2023-05-02T06:20:20;5.58;;;5.58;;
2710;SDS011;20721;47.402;8.550;2023-05-02T06:21:20;5.47;;;5.47;;
2710;SDS011;20721;47.402;8.550;2023-05-02T06:22:21;5.08;;;5.08;;
2710;SDS011;20721;47.402;8.550;2023-05-02T06:24:21;5.65;;;5.65;;
2710;SDS011;20721;47.402;8.550;2023-05-02T06:25:20;5.47;;;5.47;;
2710;SDS011;20721;47.402;8.550;2023-05-02T06:26:20;5.73;;;5.73;;
2710;SDS011;20721;47.402;8.550;2023-05-02T06:27:20;5.94;;;5.94;;
2710;SDS011;20721;47.402;8.550;2023-05-02T06:29:20;5.34;;;5.34;;
2710;SDS011;20721;47.402;8.550;2023-05-02T06:30:20;5.18;;;5.18;;
2710;SDS011;20721;47.402;8.550;2023-05-02T06:31:20;5.04;;;5.04;;
2710;SDS011;20721;47.402;8.550;2023-05-02T06:32:20;5.92;;;5.92;;
2710;SDS011;20721;47.402;8.550;2023-05-02T06:33:26;5.13;;;5.13;;
2710;SDS011;20721;47.402;8.550;2023-05-02T06:35:21;4.83;;;4.83;;
2710;SDS011;20721;47.402;8.550;2023-05-02T06:37:20;4.50;;;4.50;;
2710;SDS011;20721;47.402;8.550;2023-05-02T06:38:20;5.56;;;5.56;;
2710;SDS011;20721;47.402;8.550;2023-05-02T06:39:20;5.09;;;5.09;;
2710;SDS011;20721;47.402;8.550;2023-05-02T06:40:20;4.72;;;4.72;;
2710;SDS011;20721;47.402;8.550;2023-05-02T06:41:22;4.88;;;4.88;;
2710;SDS011;20721;47.402;8.550;2023-05-02T06:42:20;5.23;;;5.23;;
2710;SDS011;20721;47.402;8.550;2023-05-02T06:43:21;5.27;;;5.27;;
2710;SDS011;20721;47.402;8.550;2023-05-02T06:44:20;5.06;;;5.06;;
2710;SDS011;20721;47.402;8.550;2023-05-02T06:45:20;5.49;;;5.49;;
2710;SDS011;20721;47.402;8.550;2023-05-02T06:46:20;5.61;;;5.61;;
2710;SDS011;20721;47.402;8.550;2023-05-02T06:48:21;5.54;;;5.54;;
2710;SDS011;20721;47.402;8.550;2023-05-02T06:49:21;4.89;;;4.89;;
2710;SDS011;20721;47.402;8.550;2023-05-02T06:50:20;6.02;;;6.02;;
2710;SDS011;20721;47.402;8.550;2023-05-02T06:51:23;5.46;;;5.46;;
2710;SDS011;20721;47.402;8.550;2023-05-02T06:52:20;5.53;;;5.53;;
2710;SDS011;20721;47.402;8.550;2023-05-02T06:53:20;5.38;;;5.38;;
2710;SDS011;20721;47.402;8.550;2023-05-02T06:54:20;5.70;;;5.70;;
2710;SDS011;20721;47.402;8.550;2023-05-02T06:55:20;5.66;;;5.66;;
2710;SDS011;20721;47.402;8.550;2023-05-02T06:57:20;6.13;;;6.13;;
2710;SDS011;20721;47.402;8.550;2023-05-02T06:58:20;5.81;;;5.81;;
2710;SDS011;20721;47.402;8.550;2023-05-02T06:59:20;5.45;;;5.45;;
2710;SDS011;20721;47.402;8.550;2023-05-02T07:00:21;4.99;;;4.99;;
2710;SDS011;20721;47.402;8.550;2023-05-02T07:01:21;5.76;;;5.76;;
2710;SDS011;20721;47.402;8.550;2023-05-02T07:02:20;5.85;;;5.85;;
2710;SDS011;20721;47.402;8.550;2023-05-02T07:03:20;5.25;;;5.25;;
2710;SDS011;20721;47.402;8.550;2023-05-02T07:04:26;5.93;;;5.93;;
2710;SDS011;20721;47.402;8.550;2023-05-02T07:05:20;5.57;;;5.57;;
2710;SDS011;20721;47.402;8.550;2023-05-02T07:06:20;5.19;;;5.19;;
2710;SDS011;20721;47.402;8.550;2023-05-02T07:07:21;7.04;;;7.04;;
2710;SDS011;20721;47.402;8.550;2023-05-02T07:08:21;6.09;;;6.09;;
2710;SDS011;20721;47.402;8.550;2023-05-02T07:09:20;6.10;;;6.10;;
2710;SDS011;20721;47.402;8.550;2023-05-02T07:10:21;5.61;;;5.61;;
2710;SDS011;20721;47.402;8.550;2023-05-02T07:11:20;5.64;;;5.64;;
2710;SDS011;20721;47.402;8.550;2023-05-02T07:12:20;6.47;;;6.47;;
2710;SDS011;20721;47.402;8.550;2023-05-02T07:13:20;6.02;;;6.02;;
2710;SDS011;20721;47.402;8.550;2023-05-02T07:14:20;5.96;;;5.96;;
2710;SDS011;20721;47.402;8.550;2023-05-02T07:15:22;5.03;;;5.03;;
2710;SDS011;20721;47.402;8.550;2023-05-02T07:16:20;6.24;;;6.24;;
2710;SDS011;20721;47.402;8.550;2023-05-02T07:17:20;5.86;;;5.86;;
2710;SDS011;20721;47.402;8.550;2023-05-02T07:18:20;6.22;;;6.22;;
2710;SDS011;20721;47.402;8.550;2023-05-02T07:19:20;6.45;;;6.45;;
2710;SDS011;20721;47.402;8.550;2023-05-02T07:20:21;6.39;;;6.39;;
2710;SDS011;20721;47.402;8.550;2023-05-02T07:21:21;6.96;;;6.96;;
2710;SDS011;20721;47.402;8.550;2023-05-02T07:22:20;6.74;;;6.74;;
2710;SDS011;20721;47.402;8.550;2023-05-02T07:23:20;6.59;;;6.59;;
2710;SDS011;20721;47.402;8.550;2023-05-02T07:24:20;6.44;;;6.44;;